McFarland, CA (93250)

3:30 PM PDT on October 01, 2014 (GMT -0700)
KCAMCFAR2 | Change Station
CLOSE
Current Station
Personal Weather Station
Location: McFarland, CA
Elevation: 342 ft
Nearby Weather Stations

Elev 342 ft 35.69 °N, 119.23 °W | Updated 5 seconds ago

Clear
Clear
91.0 °F
Feels Like 88 °F
N
3.6
Wind Variable Wind from North
Gusts 6.7 mph

Today
High -- | Low -- °F
--% Chance of Precip.
Yesterday
High -- | Low -- °F
Precip. -- in
6:51 AM 6:40 PM
First Quarter, 51% visible
Pressure 29.83 in
Visibility 10.0 miles
Clouds Clear
Heat Index 88 °F
Dew Point 51 °F
Humidity 26%
Rainfall 0.00 in
Snow Depth 0 in , 1 in , 2 in
UV 5 out of 12
Pollen 5.50 out of 12
PM2.5 Good
Flu Activity Not available.
METAR KBFL 012154Z 31008KT 300V360 10SM CLR 28/09 A2984 RMK AO2 SLP100 T02830094

More Conditions Fewer Conditions

Pressure 29.83 in
Visibility 10.0 miles
Clouds Clear
Heat Index 88 °F
Dew Point 51 °F
Humidity 26%
Rainfall 0.00 in
Snow Depth 0 in , 1 in , 2 in
UV 5 out of 12
Pollen 5.50 out of 12
PM2.5 Good
Flu Activity Not available.
METAR KBFL 012154Z 31008KT 300V360 10SM CLR 28/09 A2984 RMK AO2 SLP100 T02830094

More Conditions Fewer Conditions

10-Day Weather Forecast

Almanac

Astronomy

Oct. 01, 2014 Rise Set
Actual Time 6:51 AM PDT 6:40 PM PDT
Civil Twilight 6:26 AM PDT 7:05 PM PDT
Nautical Twilight 5:56 AM PDT 7:35 PM PDT
Astronomical Twilight 5:27 AM PDT 8:05 PM PDT
Moon 1:48 PM PDT No Moon Set
Length of Visible Light 12h 39m
Length of Day
11h 48m
Tomorrow will be 2m 14s shorter.
First Quarter, 51% of the Moon is Illuminated
Today
First Quarter
Oct 8
Full
Oct 15
Last Quarter
Oct 23
New
Oct 30
First Quarter

Today's Extremes

State Highs State Lows

Community

WunderPhotos

Upload Photos

1,758,058 photos uploaded!

WunderBlogs® & News

By Dr. Jeff Masters
Director of Meteorology, Weather Underground
By Kari Strenfel
Meteorologist, Weather Underground
By Christopher C. Burt
Weather Historian, Weather Underground
October 1, 2014
October 1, 2014
October 1, 2014

Nearby

Air Quality

  Air Quality AQ Index Pollutant
Yesterday Moderate
OZONE
Yesterday Good
PM2.5
Current Good
PM2.5
Wednesday Moderate
OZONE
Thursday Unhealthy for Sensitive Groups
OZONE
Friday Unhealthy for Sensitive Groups
OZONE
Saturday Unhealthy for Sensitive Groups
OZONE
Sunday Unhealthy for Sensitive Groups
OZONE

Snow Depth

Station Depth Elevation
Rubicon #2 0 in 7500 ft
Leavitt Meadows 1 in 7200 ft
CSS Lab 2 in 6900 ft
Burnside Lake 0 in 8139 ft
Adin Mountain 0 in 6200 ft

Earthquake Activity

City Distance Mag. Time & Date
South Dos Palos, California 111 miles 3.0 11:17 AM PDT
2014-10-01
Shandon, California 62 miles 2.9 5:34 PM PDT
2014-09-30
South Dos Palos, California 111 miles 2.7 3:08 PM PDT
2014-09-30
South Dos Palos, California 111 miles 2.5 9:18 PM PDT
2014-09-29
Minimum magnitude displayed is 2.5.

Coastal Water Temperatures

Place Temperature
No Stations Reporting

Nearby Weather Stations